createdAt,value
2022-11-18T00:00:23.506Z,0.24
2022-11-18T00:02:29.653Z,0.37
2022-11-18T00:04:35.479Z,0.42
2022-11-18T00:06:42.457Z,0.29
2022-11-18T00:08:50.887Z,0.35
2022-11-18T00:10:59.337Z,0.32
2022-11-18T00:13:18.258Z,0.37
2022-11-18T00:15:28.953Z,0.46
2022-11-18T00:17:37.191Z,0.33
2022-11-18T00:19:44.106Z,0.34
2022-11-18T00:21:50.023Z,0.30
2022-11-18T00:23:55.855Z,0.35
2022-11-18T00:26:09.853Z,0.34
2022-11-18T00:28:15.620Z,0.37
2022-11-18T00:30:23.065Z,0.26
2022-11-18T00:32:29.631Z,0.43
2022-11-18T00:34:35.425Z,0.52
2022-11-18T00:36:43.047Z,0.34
2022-11-18T00:38:49.585Z,0.31
2022-11-18T00:41:03.161Z,0.29
2022-11-18T00:43:08.913Z,0.34
2022-11-18T00:45:15.585Z,0.36
2022-11-18T00:47:21.397Z,0.38
2022-11-18T00:49:28.042Z,0.33
2022-11-18T00:51:34.538Z,0.19
2022-11-18T00:53:40.249Z,0.13
2022-11-18T00:55:46.269Z,0.02
2022-11-18T00:57:52.923Z,0.01
2022-11-18T01:00:09.210Z,0.13
2022-11-18T01:02:33.374Z,0.05
2022-11-18T01:04:39.976Z,0.11
2022-11-18T01:06:45.692Z,0.26
2022-11-18T01:08:51.484Z,0.29
2022-11-18T01:11:18.058Z,0.19
2022-11-18T01:13:24.048Z,-0.05
2022-11-18T01:15:32.527Z,-0.03
2022-11-18T01:17:45.887Z,-0.09
2022-11-18T01:19:51.856Z,0.03
2022-11-18T01:22:09.236Z,0.16
2022-11-18T01:24:22.288Z,0.19
2022-11-18T01:26:28.020Z,0.04
2022-11-18T01:28:33.829Z,0.08
2022-11-18T01:30:44.868Z,0.17
2022-11-18T01:48:08.806Z,0.07
2022-11-18T01:50:19.639Z,0.02
2022-11-18T01:52:26.916Z,-0.07
2022-11-18T01:54:39.404Z,-0.14
2022-11-18T01:56:53.175Z,-0.09
2022-11-18T01:59:08.550Z,-0.00
2022-11-18T02:01:17.155Z,-0.13
2022-11-18T02:03:33.524Z,-0.19
2022-11-18T02:05:46.127Z,-0.28
2022-11-18T02:07:54.222Z,-0.26
2022-11-18T02:10:11.774Z,-0.21
2022-11-18T02:15:14.480Z,0.02
2022-11-18T02:17:44.285Z,0.11
2022-11-18T02:20:21.893Z,-0.08
2022-11-18T02:23:00.898Z,-0.18
2022-11-18T02:25:24.973Z,-0.02
2022-11-18T02:28:20.627Z,0.09
2022-11-18T02:30:29.077Z,0.22
2022-11-18T02:32:45.049Z,0.23
2022-11-18T02:35:05.546Z,0.17
2022-11-18T02:37:25.115Z,0.29
2022-11-18T02:39:41.371Z,0.37
2022-11-18T02:41:52.666Z,0.29
2022-11-18T02:44:07.663Z,0.38
2022-11-18T02:46:26.920Z,0.34
2022-11-18T04:35:23.517Z,-0.16
2022-11-18T04:37:30.339Z,-0.37
2022-11-18T04:39:36.381Z,-0.35
2022-11-18T04:41:54.457Z,-0.46
2022-11-18T04:44:13.356Z,-0.46
2022-11-18T04:46:19.251Z,-0.28
2022-11-18T04:48:27.034Z,-0.17
2022-11-18T04:50:42.866Z,-0.19
2022-11-18T04:52:48.586Z,-0.13
2022-11-18T04:54:54.257Z,-0.37
2022-11-18T04:57:01.438Z,-0.48
2022-11-18T04:59:08.895Z,-0.52
2022-11-18T05:01:14.674Z,-0.49
2022-11-18T05:03:21.208Z,-0.53
2022-11-18T05:05:26.935Z,-0.54
2022-11-18T05:07:35.252Z,-0.58
2022-11-18T05:09:41.807Z,-0.66
2022-11-18T05:12:01.033Z,-0.68
2022-11-18T05:14:06.792Z,-0.65
2022-11-18T05:16:13.321Z,-0.88
2022-11-18T05:18:19.185Z,-0.75
2022-11-18T05:20:25.014Z,-0.73
2022-11-18T05:22:40.854Z,-0.68
2022-11-18T05:24:49.952Z,-0.70
2022-11-18T05:26:56.168Z,-0.80
2022-11-18T05:29:09.909Z,-0.82
2022-11-18T05:31:19.540Z,-0.67
2022-11-18T05:33:32.768Z,-0.51
2022-11-18T05:35:40.626Z,-0.53
2022-11-18T05:37:48.966Z,-0.75
2022-11-18T05:39:54.778Z,-0.76
2022-11-18T05:42:19.888Z,-0.74
2022-11-18T05:44:28.539Z,-0.78
2022-11-18T05:46:35.599Z,-0.76
2022-11-18T05:48:42.253Z,-0.81
2022-11-18T05:50:54.488Z,-0.75
2022-11-18T05:53:02.966Z,-0.78
2022-11-18T05:55:12.275Z,-0.76
2022-11-18T05:57:18.107Z,-0.66
2022-11-18T05:59:24.595Z,-0.65
2022-11-18T06:01:40.563Z,-0.67
2022-11-18T06:03:46.913Z,-0.62
2022-11-18T06:05:56.200Z,-0.66
2022-11-18T06:08:12.751Z,-0.72
2022-11-18T06:10:27.683Z,-0.66
2022-11-18T06:12:48.444Z,-0.85
2022-11-18T06:15:03.892Z,-0.84
2022-11-18T06:17:21.963Z,-0.75
2022-11-18T06:19:34.956Z,-0.91
2022-11-18T06:21:41.758Z,-0.99
2022-11-18T06:23:51.311Z,-0.83
2022-11-18T06:26:02.468Z,-0.81
2022-11-18T06:28:09.309Z,-0.76
2022-11-18T06:30:17.201Z,-0.62
2022-11-18T06:32:29.610Z,-0.46
2022-11-18T06:34:41.247Z,-0.37
2022-11-18T06:36:47.716Z,-0.38
2022-11-18T06:38:56.131Z,-0.46
2022-11-18T06:41:09.599Z,-0.62
2022-11-18T06:43:28.564Z,-0.70
2022-11-18T06:45:34.609Z,-0.58
2022-11-18T06:47:38.691Z,-0.49
2022-11-18T06:49:44.502Z,-0.57
2022-11-18T06:51:50.296Z,-0.63
2022-11-18T06:53:59.789Z,-0.70
2022-11-18T06:56:20.053Z,-0.62
2022-11-18T06:58:25.745Z,-0.53
2022-11-18T07:00:32.378Z,-0.49
2022-11-18T07:02:39.930Z,-0.61
2022-11-18T07:04:45.651Z,-0.82
2022-11-18T07:06:52.499Z,-0.75
2022-11-18T07:09:03.852Z,-0.76
2022-11-18T07:11:14.781Z,-0.91
2022-11-18T07:13:21.347Z,-0.69
2022-11-18T07:15:42.489Z,-0.80
2022-11-18T07:17:48.171Z,-0.80
2022-11-18T07:19:56.525Z,-0.92
2022-11-18T07:22:02.470Z,-0.90
2022-11-18T07:24:18.729Z,-0.82
2022-11-18T07:26:26.244Z,-0.81
2022-11-18T07:28:33.745Z,-0.83
2022-11-18T07:30:39.494Z,-1.02
2022-11-18T07:32:46.023Z,-0.95
2022-11-18T07:34:55.626Z,-0.74
2022-11-18T07:37:01.345Z,-0.59
2022-11-18T07:39:11.569Z,-0.56
2022-11-18T07:41:20.072Z,-0.79
2022-11-18T07:43:25.939Z,-0.76
2022-11-18T07:45:32.647Z,-0.67
2022-11-18T07:47:38.408Z,-0.65
2022-11-18T07:49:44.227Z,-0.58
2022-11-18T07:51:50.769Z,-0.58
2022-11-18T07:53:57.507Z,-0.43
2022-11-18T07:56:13.495Z,-0.38
2022-11-18T07:58:20.052Z,-0.35
2022-11-18T08:00:26.434Z,-0.40
2022-11-18T08:02:32.360Z,-0.37
2022-11-18T08:04:40.979Z,-0.33
2022-11-18T08:06:46.751Z,-0.37
2022-11-18T08:08:52.556Z,-0.21
2022-11-18T08:11:00.104Z,-0.14
2022-11-18T08:13:08.510Z,-0.25
2022-11-18T08:15:20.638Z,-0.39
2022-11-18T08:17:27.304Z,-0.44
2022-11-18T08:19:37.516Z,-0.50
2022-11-18T08:21:43.279Z,-0.40
2022-11-18T08:23:54.205Z,-0.36
2022-11-18T08:26:07.092Z,-0.41
2022-11-18T08:28:17.704Z,-0.42
2022-11-18T08:30:24.655Z,-0.42
2022-11-18T08:32:30.780Z,-0.37
2022-11-18T08:34:36.716Z,-0.25
2022-11-18T08:36:43.773Z,-0.33
2022-11-18T08:38:49.440Z,-0.33
2022-11-18T08:40:55.895Z,-0.23
2022-11-18T08:43:02.391Z,-0.16
2022-11-18T08:45:12.290Z,-0.24
2022-11-18T08:47:20.875Z,-0.30
2022-11-18T08:49:32.235Z,-0.23
2022-11-18T08:51:38.255Z,-0.23
2022-11-18T08:53:43.970Z,-0.14
2022-11-18T08:55:59.580Z,-0.06
2022-11-18T08:58:05.305Z,-0.03
2022-11-18T09:00:16.511Z,-0.20
2022-11-18T09:02:26.774Z,-0.33
2022-11-18T09:04:32.748Z,-0.28
2022-11-18T09:06:46.462Z,-0.44
2022-11-18T09:08:53.207Z,-0.49
2022-11-18T09:10:58.986Z,-0.45
2022-11-18T09:13:25.271Z,-0.29
2022-11-18T09:15:36.946Z,-0.30
2022-11-18T09:17:42.644Z,-0.29
2022-11-18T09:19:48.643Z,-0.15
2022-11-18T09:22:02.923Z,-0.30
2022-11-18T09:24:17.076Z,-0.16
2022-11-18T09:26:26.719Z,-0.15
2022-11-18T09:28:36.211Z,-0.23
2022-11-18T09:30:46.326Z,-0.30
2022-11-18T09:32:58.953Z,-0.45
2022-11-18T09:35:05.990Z,-0.40
2022-11-18T09:39:16.359Z,-0.27
2022-11-18T09:41:46.784Z,-0.03
2022-11-18T09:44:16.798Z,0.08
2022-11-18T09:46:36.861Z,-0.01
2022-11-18T09:48:55.048Z,-0.10
2022-11-18T09:51:01.464Z,-0.09
2022-11-18T09:53:22.118Z,-0.10
2022-11-18T09:55:33.470Z,-0.14
2022-11-18T09:57:46.963Z,-0.12
2022-11-18T09:59:54.961Z,-0.28
2022-11-18T10:02:29.875Z,-0.39
2022-11-18T10:04:35.584Z,-0.25
2022-11-18T10:06:42.295Z,-0.34
2022-11-18T10:09:16.366Z,-0.26
2022-11-18T10:11:31.920Z,-0.15
2022-11-18T10:13:58.582Z,-0.04
2022-11-18T10:16:30.665Z,-0.01
2022-11-18T10:19:00.334Z,-0.08
2022-11-18T10:21:27.553Z,-0.17
2022-11-18T10:23:54.094Z,-0.23
2022-11-18T10:25:59.959Z,-0.31
2022-11-18T10:28:29.701Z,-0.30
2022-11-18T10:30:35.822Z,-0.28
2022-11-18T10:32:58.109Z,-0.30
2022-11-18T10:35:04.611Z,-0.47
2022-11-18T10:37:38.655Z,-0.53
2022-11-18T10:39:56.255Z,-0.48
2022-11-18T10:42:09.775Z,-0.54
2022-11-18T10:44:40.329Z,-0.40
2022-11-18T10:46:46.840Z,-0.49
2022-11-18T10:49:19.016Z,-0.62
2022-11-18T10:51:28.022Z,-0.57
2022-11-18T10:53:39.163Z,-0.64
2022-11-18T10:56:01.122Z,-0.66
2022-11-18T10:58:22.234Z,-0.82
2022-11-18T11:00:48.647Z,-0.82
2022-11-18T11:02:56.394Z,-0.71
2022-11-18T11:05:07.495Z,-0.87
2022-11-18T11:07:32.284Z,-0.76
2022-11-18T11:09:45.247Z,-0.66
2022-11-18T11:12:04.980Z,-0.57
2022-11-18T11:14:26.503Z,-0.63
2022-11-18T11:16:50.993Z,-0.88
2022-11-18T11:19:05.297Z,-0.89
2022-11-18T11:21:17.793Z,-0.87
2022-11-18T11:23:28.138Z,-1.11
2022-11-18T11:28:30.535Z,-1.05
2022-11-18T11:30:49.207Z,-1.12
2022-11-18T11:33:24.996Z,-1.08
2022-11-18T11:35:45.733Z,-1.08
2022-11-18T11:37:58.893Z,-1.13
2022-11-18T11:40:29.608Z,-1.12
2022-11-18T11:42:59.126Z,-1.00
2022-11-18T11:45:27.033Z,-0.85
2022-11-18T11:47:57.166Z,-0.90
2022-11-18T11:50:25.547Z,-0.69
2022-11-18T11:52:48.403Z,-0.68
2022-11-18T11:55:18.765Z,-0.55
2022-11-18T11:57:48.252Z,-0.70
2022-11-18T12:00:08.030Z,-0.82
2022-11-18T12:02:56.625Z,-0.83
2022-11-18T12:05:24.276Z,-0.67
2022-11-18T12:07:41.321Z,-0.76
2022-11-18T12:10:23.989Z,-0.96
2022-11-18T12:12:47.818Z,-1.15
2022-11-18T12:15:07.909Z,-0.96
2022-11-18T12:17:29.003Z,-1.02
2022-11-18T12:19:42.540Z,-1.29
2022-11-18T12:22:07.829Z,-1.25
2022-11-18T12:24:37.172Z,-1.12
2022-11-18T12:26:43.997Z,-1.06
2022-11-18T12:28:50.219Z,-1.06
2022-11-18T12:31:39.069Z,-1.17
2022-11-18T12:33:48.320Z,-1.06
2022-11-18T12:35:55.299Z,-1.21
2022-11-18T12:38:06.193Z,-1.29
2022-11-18T12:40:33.460Z,-1.29
2022-11-18T12:43:00.988Z,-1.31
2022-11-18T12:46:03.118Z,-1.18
2022-11-18T12:48:46.255Z,-1.32
2022-11-18T12:50:54.591Z,-1.44
2022-11-18T12:53:00.255Z,-1.66
2022-11-18T12:55:21.701Z,-1.59
2022-11-18T12:57:33.189Z,-1.54
2022-11-18T12:59:41.659Z,-1.78
2022-11-18T13:01:48.443Z,-1.82
2022-11-18T13:03:55.630Z,-1.69
2022-11-18T13:06:09.547Z,-1.70
2022-11-18T13:08:21.057Z,-1.67
2022-11-18T13:10:35.250Z,-1.52
2022-11-18T13:12:41.111Z,-1.39
2022-11-18T13:15:01.292Z,-1.42
2022-11-18T13:17:43.423Z,-1.35
2022-11-18T13:20:01.113Z,-1.35
2022-11-18T13:22:31.583Z,-1.53
2022-11-18T13:24:48.882Z,-1.45
2022-11-18T13:27:04.842Z,-1.38
2022-11-18T13:29:38.837Z,-1.29
2022-11-18T13:32:05.740Z,-1.31
2022-11-18T13:34:21.792Z,-1.34
2022-11-18T13:36:29.607Z,-1.42
2022-11-18T13:38:35.510Z,-1.66
2022-11-18T13:41:04.726Z,-1.61
2022-11-18T13:43:15.565Z,-1.65
2022-11-18T13:45:23.323Z,-1.70
2022-11-18T13:47:44.607Z,-1.83
2022-11-18T13:50:03.467Z,-1.89
2022-11-18T13:52:16.292Z,-1.79
2022-11-18T13:54:30.340Z,-1.68
2022-11-18T13:56:37.078Z,-1.63
2022-11-18T14:01:26.676Z,-1.97
2022-11-18T14:03:39.862Z,-2.10
2022-11-18T14:05:45.523Z,-2.04
2022-11-18T14:08:09.177Z,-2.02
2022-11-18T14:10:19.294Z,-1.85
2022-11-18T14:12:29.196Z,-1.87
2022-11-18T14:14:41.458Z,-1.80
2022-11-18T14:16:47.292Z,-1.56
2022-11-18T14:18:55.110Z,-1.49
2022-11-18T14:21:04.616Z,-1.37
2022-11-18T14:23:20.932Z,-1.43
2022-11-18T14:25:34.355Z,-1.44
2022-11-18T14:27:45.590Z,-1.58
2022-11-18T14:29:55.805Z,-1.59
2022-11-18T14:32:23.602Z,-1.75
2022-11-18T14:34:31.300Z,-1.72
2022-11-18T14:40:49.524Z,-1.80
2022-11-18T14:42:55.241Z,-1.63
2022-11-18T14:45:01.048Z,-1.60
2022-11-18T14:47:27.072Z,-1.80
2022-11-18T14:49:34.939Z,-1.84
2022-11-18T14:51:40.722Z,-1.66
2022-11-18T14:53:49.863Z,-1.55
2022-11-18T14:56:01.595Z,-1.57
2022-11-18T14:58:07.354Z,-1.63
2022-11-18T15:00:19.830Z,-1.48
2022-11-18T15:02:26.606Z,-1.48
2022-11-18T15:04:32.363Z,-1.53
2022-11-18T15:06:40.076Z,-1.70
2022-11-18T15:08:51.642Z,-1.90
2022-11-18T15:10:57.298Z,-1.86
2022-11-18T15:13:04.232Z,-2.01
2022-11-18T15:15:11.031Z,-1.93
2022-11-18T15:17:22.474Z,-1.89
2022-11-18T15:19:32.281Z,-1.94
2022-11-18T15:21:38.117Z,-2.02
2022-11-18T15:23:44.276Z,-2.07
2022-11-18T15:25:53.462Z,-1.99
2022-11-18T15:27:59.180Z,-2.10
2022-11-18T15:30:05.553Z,-2.11
2022-11-18T15:32:18.790Z,-2.27
2022-11-18T15:34:25.001Z,-2.12
2022-11-18T15:36:37.981Z,-2.13
2022-11-18T15:38:56.015Z,-2.05
2022-11-18T15:41:04.380Z,-2.05
2022-11-18T15:43:10.216Z,-2.32
2022-11-18T15:45:16.782Z,-2.30
2022-11-18T15:47:22.604Z,-2.30
2022-11-18T15:49:28.669Z,-2.33
2022-11-18T15:51:35.330Z,-2.23
2022-11-18T15:53:41.268Z,-2.20
2022-11-18T15:55:47.076Z,-2.22
2022-11-18T15:57:56.241Z,-2.37
2022-11-18T16:00:08.111Z,-2.17
2022-11-18T16:02:18.204Z,-2.11
2022-11-18T16:04:24.787Z,-2.04
2022-11-18T16:06:31.030Z,-2.00
2022-11-18T16:08:36.709Z,-2.17
2022-11-18T16:10:55.570Z,-2.16
2022-11-18T16:13:03.879Z,-2.34
2022-11-18T16:15:29.331Z,-2.35
2022-11-18T16:17:38.202Z,-2.21
2022-11-18T16:19:44.011Z,-2.24
2022-11-18T16:21:53.439Z,-2.23
2022-11-18T16:24:05.974Z,-2.14
2022-11-18T16:26:11.750Z,-2.24
2022-11-18T16:28:20.159Z,-2.27
2022-11-18T16:30:39.168Z,-2.39
2022-11-18T16:32:44.812Z,-2.23
2022-11-18T16:34:51.795Z,-2.30
2022-11-18T16:37:02.848Z,-2.16
2022-11-18T16:39:32.019Z,-2.24
2022-11-18T16:42:08.050Z,-2.20
2022-11-18T16:44:19.498Z,-2.22
2022-11-18T16:46:25.147Z,-2.20
2022-11-18T16:48:30.995Z,-2.10
2022-11-18T16:52:05.021Z,-2.09
2022-11-18T16:54:20.990Z,-2.09
2022-11-18T16:56:29.916Z,-2.11
2022-11-18T16:58:42.329Z,-2.22
2022-11-18T17:01:16.835Z,-2.23
2022-11-18T17:03:14.517Z,-2.27
2022-11-18T17:05:20.308Z,-2.20
2022-11-18T17:07:31.596Z,-2.20
2022-11-18T17:09:41.258Z,-2.00
2022-11-18T17:11:47.434Z,-2.03
2022-11-18T17:13:58.045Z,-2.08
2022-11-18T17:16:07.997Z,-2.08
2022-11-18T17:18:13.761Z,-2.17
2022-11-18T17:20:22.238Z,-2.23
2022-11-18T17:22:30.721Z,-2.13
2022-11-18T17:24:36.557Z,-1.94
2022-11-18T17:28:10.811Z,-2.10
2022-11-18T17:30:18.148Z,-2.21
2022-11-18T17:32:23.803Z,-2.09
2022-11-18T17:34:29.565Z,-2.25
2022-11-18T17:36:36.261Z,-2.07
2022-11-18T17:38:45.120Z,-2.05
2022-11-18T17:40:57.714Z,-2.16
2022-11-18T17:43:01.809Z,-2.20
2022-11-18T17:45:12.725Z,-1.96
2022-11-18T17:47:21.240Z,-1.72
2022-11-18T17:49:27.915Z,-1.84
2022-11-18T17:51:34.801Z,-1.76
2022-11-18T17:53:43.499Z,-1.66
2022-11-18T17:55:50.832Z,-1.63
2022-11-18T17:57:59.261Z,-1.59
2022-11-18T18:00:05.686Z,-1.62
2022-11-18T18:02:18.891Z,-1.56
2022-11-18T18:04:24.976Z,-1.48
2022-11-18T18:06:30.720Z,-1.69
2022-11-18T18:08:37.993Z,-1.68
2022-11-18T18:10:46.377Z,-1.97
2022-11-18T18:13:04.640Z,-1.95
2022-11-18T18:15:12.480Z,-1.87
2022-11-18T18:17:21.247Z,-1.83
2022-11-18T18:19:28.331Z,-1.98
2022-11-18T18:21:35.861Z,-1.83
2022-11-18T18:23:41.663Z,-1.92
2022-11-18T18:25:47.378Z,-2.13
2022-11-18T18:27:54.056Z,-2.19
2022-11-18T18:29:59.810Z,-2.17
2022-11-18T18:32:06.458Z,-1.92
2022-11-18T18:34:15.700Z,-1.78
2022-11-18T18:36:25.345Z,-1.78
2022-11-18T18:38:34.533Z,-1.69
2022-11-18T18:40:41.100Z,-1.80
2022-11-18T18:45:01.695Z,-1.88
2022-11-18T18:47:08.335Z,-1.84
2022-11-18T18:49:20.631Z,-1.91
2022-11-18T18:51:26.894Z,-1.77
2022-11-18T18:53:34.711Z,-1.64
2022-11-18T18:55:44.718Z,-1.56
2022-11-18T18:57:50.857Z,-1.47
2022-11-18T19:00:00.046Z,-1.39
2022-11-18T19:02:06.821Z,-1.35
2022-11-18T19:04:16.786Z,-1.59
2022-11-18T19:06:52.003Z,-1.64
2022-11-18T19:08:52.902Z,-1.79
2022-11-18T19:10:58.676Z,-1.74
2022-11-18T19:13:02.681Z,-1.70
2022-11-18T19:15:14.039Z,-1.79
2022-11-18T19:17:19.960Z,-1.95
2022-11-18T19:19:42.901Z,-2.04
2022-11-18T19:21:50.217Z,-1.92
2022-11-18T19:23:56.803Z,-1.96
2022-11-18T19:26:03.536Z,-2.04
2022-11-18T19:28:09.313Z,-2.03
2022-11-18T19:30:17.956Z,-2.05
2022-11-18T19:32:24.619Z,-2.08
2022-11-18T19:34:30.350Z,-2.04
2022-11-18T19:36:37.432Z,-1.93
2022-11-18T19:38:44.537Z,-2.04
2022-11-18T19:40:50.490Z,-2.21
2022-11-18T19:42:56.867Z,-2.16
2022-11-18T19:45:03.481Z,-2.07
2022-11-18T19:47:11.920Z,-2.22
2022-11-18T19:49:18.070Z,-2.14
2022-11-18T19:51:26.107Z,-2.03
2022-11-18T19:53:39.264Z,-2.08
2022-11-18T19:55:45.016Z,-2.13
2022-11-18T19:57:51.731Z,-2.11
2022-11-18T19:59:57.545Z,-2.13
2022-11-18T20:02:03.705Z,-2.22
2022-11-18T20:04:12.962Z,-2.07
2022-11-18T20:06:20.659Z,-1.99
2022-11-18T20:08:28.233Z,-2.17
2022-11-18T20:10:35.090Z,-2.23
2022-11-18T20:12:40.942Z,-2.16
2022-11-18T20:14:46.698Z,-2.07
2022-11-18T20:16:54.599Z,-2.07
2022-11-18T20:19:09.315Z,-2.12
2022-11-18T20:21:23.037Z,-1.96
2022-11-18T20:23:29.513Z,-1.99
2022-11-18T20:25:35.287Z,-1.92
2022-11-18T20:27:41.166Z,-2.03
2022-11-18T20:29:48.448Z,-2.09
2022-11-18T20:31:55.287Z,-1.98
2022-11-18T20:34:01.107Z,-1.88
2022-11-18T20:36:10.501Z,-1.79
2022-11-18T20:38:18.910Z,-1.95
2022-11-18T20:40:24.652Z,-1.93
2022-11-18T20:42:44.221Z,-1.86
2022-11-18T20:44:50.334Z,-1.91
2022-11-18T20:46:56.072Z,-1.89
2022-11-18T20:49:19.541Z,-1.95
2022-11-18T20:51:29.061Z,-1.94
2022-11-18T20:53:38.943Z,-1.83
2022-11-18T20:55:44.917Z,-1.79
2022-11-18T20:57:51.663Z,-1.89
2022-11-18T20:59:57.497Z,-1.81
2022-11-18T21:02:03.488Z,-1.91
2022-11-18T21:04:10.071Z,-1.94
2022-11-18T21:06:17.880Z,-1.92
2022-11-18T21:08:23.706Z,-2.05
2022-11-18T21:10:33.568Z,-2.05
2022-11-18T21:12:59.368Z,-2.04
2022-11-18T21:15:02.914Z,-1.87
2022-11-18T21:17:09.539Z,-1.89
2022-11-18T21:19:16.807Z,-1.96
2022-11-18T21:21:40.689Z,-1.83
2022-11-18T21:23:47.356Z,-1.85
2022-11-18T21:25:55.940Z,-1.88
2022-11-18T21:28:02.093Z,-1.81
2022-11-18T21:30:10.817Z,-1.76
2022-11-18T21:32:19.067Z,-1.81
2022-11-18T21:34:25.627Z,-1.76
2022-11-18T21:36:32.654Z,-1.66
2022-11-18T21:38:38.445Z,-1.79
2022-11-18T21:40:44.297Z,-1.82
2022-11-18T21:42:58.128Z,-1.88
2022-11-18T21:45:03.946Z,-1.83
2022-11-18T21:47:09.650Z,-1.75
2022-11-18T21:49:16.612Z,-1.83
2022-11-18T21:51:25.462Z,-1.76
2022-11-18T21:53:32.069Z,-1.76
2022-11-18T21:55:38.629Z,-1.75
2022-11-18T21:57:44.612Z,-1.76
2022-11-18T21:59:56.296Z,-1.70
2022-11-18T22:02:02.833Z,-1.73
2022-11-18T22:04:29.077Z,-1.76
2022-11-18T22:06:37.153Z,-1.75
2022-11-18T22:08:45.391Z,-1.86
2022-11-18T22:10:51.144Z,-1.95
2022-11-18T22:12:56.939Z,-1.89
2022-11-18T22:15:06.273Z,-1.93
2022-11-18T22:17:12.521Z,-2.02
2022-11-18T22:19:18.170Z,-2.20
2022-11-18T22:21:26.672Z,-2.11
2022-11-18T22:23:35.443Z,-2.12
2022-11-18T22:25:41.244Z,-2.12
2022-11-18T22:27:47.748Z,-2.00
2022-11-18T22:29:53.498Z,-2.13
2022-11-18T22:32:02.070Z,-2.12
2022-11-18T22:34:08.726Z,-2.05
2022-11-18T22:36:17.998Z,-2.04
2022-11-18T22:38:23.704Z,-1.92
2022-11-18T22:40:30.362Z,-1.89
2022-11-18T22:42:48.337Z,-1.85
2022-11-18T22:44:54.090Z,-1.98
2022-11-18T22:47:03.293Z,-1.93
2022-11-18T22:49:10.921Z,-1.83
2022-11-18T22:51:16.690Z,-1.79
2022-11-18T22:53:23.334Z,-1.81
2022-11-18T22:55:29.094Z,-1.91
2022-11-18T22:57:36.962Z,-1.92
2022-11-18T22:59:43.584Z,-1.90
2022-11-18T23:01:49.350Z,-1.92
2022-11-18T23:03:57.723Z,-2.00
2022-11-18T23:06:06.236Z,-1.94
2022-11-18T23:08:11.938Z,-1.97
2022-11-18T23:10:17.896Z,-1.98
2022-11-18T23:12:36.897Z,-1.92
2022-11-18T23:14:42.690Z,-1.94
2022-11-18T23:16:48.634Z,-2.10
2022-11-18T23:18:57.728Z,-2.08
2022-11-18T23:21:05.891Z,-2.13
2022-11-18T23:23:11.616Z,-2.09
2022-11-18T23:25:18.441Z,-2.03
2022-11-18T23:27:24.132Z,-2.00
2022-11-18T23:29:30.051Z,-2.09
2022-11-18T23:31:37.097Z,-2.10
2022-11-18T23:33:44.570Z,-2.16
2022-11-18T23:35:57.872Z,-2.15
2022-11-18T23:38:04.406Z,-2.13
2022-11-18T23:40:12.536Z,-2.10
2022-11-18T23:42:18.217Z,-2.10
2022-11-18T23:44:45.032Z,-2.11
2022-11-18T23:46:50.730Z,-2.10
2022-11-18T23:48:57.059Z,-2.20
2022-11-18T23:51:09.642Z,-2.19
2022-11-18T23:53:15.378Z,-2.16
2022-11-18T23:55:21.114Z,-2.12
2022-11-18T23:57:30.545Z,-2.07
2022-11-18T23:59:36.756Z,-2.02
